createdAt,value
2017-11-17T00:01:07.467Z,58.80
2017-11-17T00:03:36.906Z,66.27
2017-11-17T00:06:06.646Z,62.93
2017-11-17T00:08:35.215Z,59.90
2017-11-17T00:11:03.504Z,67.53
2017-11-17T00:13:31.862Z,57.37
2017-11-17T00:16:00.922Z,61.30
2017-11-17T00:18:30.035Z,79.53
2017-11-17T00:20:59.136Z,79.93
2017-11-17T00:23:27.444Z,70.87
2017-11-17T00:25:57.244Z,80.33
2017-11-17T00:28:26.330Z,94.50
2017-11-17T00:30:54.622Z,78.67
2017-11-17T00:33:23.664Z,69.67
2017-11-17T00:35:52.003Z,77.20
2017-11-17T00:38:20.296Z,76.27
2017-11-17T00:40:48.583Z,69.03
2017-11-17T00:43:16.955Z,72.33
2017-11-17T00:45:46.006Z,77.23
2017-11-17T00:48:14.291Z,77.47
2017-11-17T00:50:43.391Z,71.10
2017-11-17T00:53:11.675Z,68.10
2017-11-17T00:55:39.963Z,65.47
2017-11-17T00:58:08.295Z,62.30
2017-11-17T01:00:36.986Z,60.50
2017-11-17T01:03:05.275Z,63.90
2017-11-17T01:05:33.621Z,67.23
2017-11-17T01:08:01.912Z,57.80
2017-11-17T01:10:30.196Z,57.40
2017-11-17T01:12:58.532Z,58.10
2017-11-17T01:15:27.971Z,58.80
2017-11-17T01:17:56.253Z,57.67
2017-11-17T01:20:24.630Z,60.87
2017-11-17T01:22:52.916Z,59.60
2017-11-17T01:25:22.716Z,55.90
2017-11-17T01:27:51.427Z,61.40
2017-11-17T01:30:20.112Z,52.50
2017-11-17T01:32:49.156Z,51.47
2017-11-17T01:35:17.488Z,51.97
2017-11-17T01:37:46.562Z,46.20
2017-11-17T01:40:14.864Z,47.03
2017-11-17T01:42:43.550Z,53.07
2017-11-17T01:45:12.977Z,45.63
2017-11-17T01:47:41.283Z,43.57
2017-11-17T01:50:09.606Z,53.10
2017-11-17T01:52:37.935Z,48.83
2017-11-17T01:55:06.212Z,43.33
2017-11-17T01:57:35.196Z,45.97
2017-11-17T02:00:03.503Z,42.13
2017-11-17T02:02:31.811Z,38.40
2017-11-17T02:05:01.680Z,37.17
2017-11-17T02:07:30.252Z,46.87
2017-11-17T02:09:58.929Z,42.53
2017-11-17T02:12:27.260Z,41.13
2017-11-17T02:14:55.555Z,39.10
2017-11-17T02:17:24.258Z,40.73
2017-11-17T02:19:52.979Z,37.03
2017-11-17T02:22:21.261Z,38.33
2017-11-17T02:24:50.718Z,32.60
2017-11-17T02:27:19.079Z,33.80
2017-11-17T02:29:48.897Z,39.43
2017-11-17T02:32:18.000Z,40.67
2017-11-17T02:34:47.864Z,28.97
2017-11-17T02:37:17.296Z,31.60
2017-11-17T02:39:46.383Z,34.40
2017-11-17T02:42:15.097Z,28.13
2017-11-17T02:44:43.782Z,27.60
2017-11-17T02:47:12.089Z,32.83
2017-11-17T02:49:40.513Z,30.00
2017-11-17T02:52:08.811Z,27.80
2017-11-17T02:54:37.135Z,26.77
2017-11-17T02:57:05.647Z,30.17
2017-11-17T02:59:34.355Z,32.17
2017-11-17T03:02:03.424Z,29.07
2017-11-17T03:04:32.545Z,37.57
2017-11-17T03:07:00.835Z,28.33
2017-11-17T03:09:29.126Z,32.27
2017-11-17T03:11:57.483Z,44.17
2017-11-17T03:14:25.780Z,36.53
2017-11-17T03:16:54.059Z,34.97
2017-11-17T03:19:23.970Z,36.27
2017-11-17T03:21:53.385Z,31.97
2017-11-17T03:24:22.458Z,29.33
2017-11-17T03:26:51.950Z,27.40
2017-11-17T03:29:20.999Z,26.87
2017-11-17T03:31:49.296Z,32.40
2017-11-17T03:34:18.535Z,30.30
2017-11-17T03:36:46.819Z,35.27
2017-11-17T03:39:15.130Z,29.53
2017-11-17T03:41:44.239Z,26.23
2017-11-17T03:44:12.530Z,23.37
2017-11-17T03:46:40.820Z,27.33
2017-11-17T03:49:10.696Z,27.50
2017-11-17T03:51:39.039Z,27.23
2017-11-17T03:54:08.483Z,23.40
2017-11-17T03:56:36.820Z,26.13
2017-11-17T03:59:05.105Z,26.73
2017-11-17T04:01:33.418Z,29.77
2017-11-17T04:04:01.759Z,25.33
2017-11-17T04:06:31.555Z,22.17
2017-11-17T04:08:59.847Z,22.47
2017-11-17T04:11:28.285Z,24.97
2017-11-17T04:13:56.568Z,28.37
2017-11-17T04:16:24.865Z,18.47
2017-11-17T04:18:53.615Z,24.90
2017-11-17T04:21:21.902Z,19.90
2017-11-17T04:23:50.202Z,26.60
2017-11-17T04:26:18.531Z,18.00
2017-11-17T04:28:47.591Z,22.33
2017-11-17T04:31:15.881Z,17.33
2017-11-17T04:33:44.600Z,18.20
2017-11-17T04:36:12.915Z,24.70
2017-11-17T04:38:41.210Z,20.53
2017-11-17T04:41:09.523Z,21.10
2017-11-17T04:43:37.804Z,19.70
2017-11-17T04:46:06.080Z,14.70
2017-11-17T04:48:35.536Z,21.07
2017-11-17T04:51:03.820Z,13.70
2017-11-17T04:53:32.854Z,15.20
2017-11-17T04:56:01.591Z,16.63
2017-11-17T04:58:30.264Z,19.70
2017-11-17T05:00:58.556Z,16.17
2017-11-17T05:03:27.651Z,13.10
2017-11-17T05:05:55.927Z,16.13
2017-11-17T05:08:24.203Z,13.20
2017-11-17T05:10:52.523Z,14.27
2017-11-17T05:13:20.826Z,14.63
2017-11-17T05:15:49.132Z,16.13
2017-11-17T05:18:18.607Z,21.13
2017-11-17T05:20:46.884Z,10.30
2017-11-17T05:23:15.158Z,22.30
2017-11-17T05:25:43.673Z,12.90
2017-11-17T05:28:11.967Z,11.27
2017-11-17T05:30:41.403Z,15.80
2017-11-17T05:33:09.763Z,13.00
2017-11-17T05:35:38.828Z,11.93
2017-11-17T05:38:07.879Z,19.43
2017-11-17T05:40:36.209Z,18.40
2017-11-17T05:43:04.518Z,10.70
2017-11-17T05:45:32.831Z,11.07
2017-11-17T05:48:01.939Z,19.20
2017-11-17T05:50:30.235Z,13.80
2017-11-17T05:52:59.286Z,19.87
2017-11-17T05:55:27.617Z,13.60
2017-11-17T05:57:56.311Z,13.70
2017-11-17T06:00:24.607Z,12.67
2017-11-17T06:02:52.932Z,9.30
2017-11-17T06:05:21.230Z,8.40
2017-11-17T06:07:49.515Z,13.43
2017-11-17T06:10:17.843Z,9.93
2017-11-17T06:12:46.119Z,16.33
2017-11-17T06:15:14.401Z,15.23
2017-11-17T06:17:43.040Z,12.67
2017-11-17T06:20:12.088Z,11.20
2017-11-17T06:22:41.151Z,15.90
2017-11-17T06:25:09.476Z,7.73
2017-11-17T06:27:37.756Z,7.87
2017-11-17T06:30:06.031Z,9.53
2017-11-17T06:32:35.863Z,10.63
2017-11-17T06:35:05.495Z,10.50
2017-11-17T06:37:34.071Z,14.60
2017-11-17T06:40:02.391Z,11.50
2017-11-17T06:42:30.678Z,10.20
2017-11-17T06:44:58.957Z,10.50
2017-11-17T06:47:27.282Z,21.90
2017-11-17T06:49:56.699Z,10.43
2017-11-17T06:52:24.985Z,20.83
2017-11-17T06:54:53.310Z,14.60
2017-11-17T06:57:21.591Z,15.43
2017-11-17T06:59:49.881Z,11.87
2017-11-17T07:02:18.363Z,15.47
2017-11-17T07:04:47.424Z,13.17
2017-11-17T07:07:16.502Z,16.60
2017-11-17T07:09:46.208Z,14.33
2017-11-17T07:12:15.513Z,8.67
2017-11-17T07:14:43.811Z,11.00
2017-11-17T07:17:12.128Z,17.13
2017-11-17T07:19:40.402Z,9.40
2017-11-17T07:22:08.700Z,24.43
2017-11-17T07:24:37.032Z,9.60
2017-11-17T07:27:05.322Z,14.20
2017-11-17T07:29:33.591Z,10.93
2017-11-17T07:32:02.699Z,14.63
2017-11-17T07:34:31.739Z,14.03
2017-11-17T07:37:00.031Z,8.30
2017-11-17T07:39:29.710Z,15.63
2017-11-17T07:41:57.863Z,16.53
2017-11-17T07:44:26.926Z,7.73
2017-11-17T07:46:55.240Z,14.47
2017-11-17T07:49:23.528Z,17.23
2017-11-17T07:51:52.587Z,10.53
2017-11-17T07:54:21.291Z,9.40
2017-11-17T07:56:49.563Z,17.23
2017-11-17T07:59:17.859Z,14.43
2017-11-17T08:01:46.207Z,12.10
2017-11-17T08:04:14.483Z,9.10
2017-11-17T08:06:42.775Z,13.50
2017-11-17T08:09:11.103Z,13.10
2017-11-17T08:11:39.393Z,14.23
2017-11-17T08:14:09.203Z,11.73
2017-11-17T08:16:37.556Z,8.50
2017-11-17T08:19:05.832Z,9.20
2017-11-17T08:21:34.108Z,7.80
2017-11-17T08:24:02.812Z,9.37
2017-11-17T08:26:31.866Z,9.83
2017-11-17T08:29:00.924Z,10.13
2017-11-17T08:31:30.027Z,10.83
2017-11-17T08:33:58.322Z,19.93
2017-11-17T08:36:26.626Z,11.23
2017-11-17T08:38:56.296Z,14.13
2017-11-17T08:41:25.591Z,18.63
2017-11-17T08:43:53.884Z,9.30
2017-11-17T08:46:22.219Z,12.20
2017-11-17T08:48:52.001Z,7.37
2017-11-17T08:51:20.294Z,14.27
2017-11-17T08:53:48.615Z,17.50
2017-11-17T08:56:17.299Z,12.13
2017-11-17T08:58:45.579Z,11.53
2017-11-17T09:01:14.089Z,12.83
2017-11-17T09:03:43.158Z,8.87
2017-11-17T09:06:11.468Z,10.83
2017-11-17T09:08:39.969Z,11.60
2017-11-17T09:11:08.251Z,13.47
2017-11-17T09:13:36.929Z,12.17
2017-11-17T09:16:05.278Z,11.30
2017-11-17T09:18:33.562Z,11.33
2017-11-17T09:21:01.852Z,8.73
2017-11-17T09:23:31.676Z,10.43
2017-11-17T09:26:02.236Z,13.53
2017-11-17T09:28:30.515Z,20.23
2017-11-17T09:30:59.762Z,12.53
2017-11-17T09:33:28.435Z,14.80
2017-11-17T09:35:56.727Z,13.53
2017-11-17T09:38:25.441Z,11.57
2017-11-17T09:40:53.720Z,14.40
2017-11-17T09:43:22.771Z,18.37
2017-11-17T09:45:51.091Z,13.27
2017-11-17T09:48:20.727Z,19.07
2017-11-17T09:50:49.655Z,12.83
2017-11-17T09:53:18.843Z,17.27
2017-11-17T09:55:47.118Z,21.50
2017-11-17T09:58:15.399Z,32.13
2017-11-17T10:00:43.747Z,14.00
2017-11-17T10:03:13.536Z,10.30
2017-11-17T10:05:41.834Z,9.63
2017-11-17T10:08:10.169Z,18.07
2017-11-17T10:10:38.466Z,13.90
2017-11-17T10:13:07.605Z,22.13
2017-11-17T10:15:35.956Z,21.23
2017-11-17T10:18:04.235Z,18.33
2017-11-17T10:20:32.516Z,13.63
2017-11-17T10:23:00.844Z,16.60
2017-11-17T10:25:30.269Z,12.33
2017-11-17T10:27:59.329Z,16.30
2017-11-17T10:30:28.958Z,11.57
2017-11-17T10:32:57.276Z,12.90
2017-11-17T10:35:25.972Z,15.60
2017-11-17T10:37:54.723Z,14.03
2017-11-17T10:40:23.027Z,18.30
2017-11-17T10:42:51.336Z,18.17
2017-11-17T10:45:19.667Z,18.73
2017-11-17T10:47:49.087Z,14.00
2017-11-17T10:50:18.152Z,17.40
2017-11-17T10:52:46.500Z,15.07
2017-11-17T10:55:14.783Z,15.73
2017-11-17T10:57:43.854Z,14.63
2017-11-17T11:00:12.217Z,16.30
2017-11-17T11:02:40.504Z,16.53
2017-11-17T11:05:10.414Z,12.57
2017-11-17T11:07:39.016Z,17.17
2017-11-17T11:10:07.306Z,15.60
2017-11-17T11:12:35.595Z,18.23
2017-11-17T11:15:04.328Z,22.13
2017-11-17T11:17:32.607Z,15.17
2017-11-17T11:20:02.257Z,15.93
2017-11-17T11:22:30.866Z,20.93
2017-11-17T11:25:00.495Z,15.87
2017-11-17T11:27:29.071Z,16.57
2017-11-17T11:29:57.393Z,11.70
2017-11-17T11:32:26.066Z,13.57
2017-11-17T11:34:55.479Z,25.63
2017-11-17T11:37:23.814Z,13.00
2017-11-17T11:39:52.114Z,14.90
2017-11-17T11:42:20.412Z,15.73
2017-11-17T11:44:48.735Z,14.50
2017-11-17T11:47:17.016Z,19.53
2017-11-17T11:49:45.298Z,18.23
2017-11-17T11:52:15.122Z,13.60
2017-11-17T11:54:43.426Z,14.63
2017-11-17T11:57:11.711Z,17.83
2017-11-17T11:59:40.037Z,14.80
2017-11-17T12:02:08.716Z,20.63
2017-11-17T12:04:37.760Z,10.37
2017-11-17T12:07:06.887Z,14.20
2017-11-17T12:09:35.165Z,12.03
2017-11-17T12:12:03.448Z,9.93
2017-11-17T12:14:33.276Z,7.87
2017-11-17T12:17:01.555Z,12.83
2017-11-17T12:19:29.824Z,7.13
2017-11-17T12:21:58.150Z,10.53
2017-11-17T12:24:26.431Z,5.60
2017-11-17T12:26:54.706Z,7.20
2017-11-17T12:29:23.812Z,10.27
2017-11-17T12:31:52.504Z,10.73
2017-11-17T12:34:20.783Z,6.97
2017-11-17T12:36:49.119Z,7.90
2017-11-17T12:39:17.399Z,9.70
2017-11-17T12:41:45.683Z,10.53
2017-11-17T12:44:14.423Z,6.90
2017-11-17T12:46:42.702Z,10.90
2017-11-17T12:49:11.002Z,9.03
2017-11-17T12:51:39.329Z,12.57
2017-11-17T12:54:07.616Z,19.93
2017-11-17T12:56:35.898Z,11.03
2017-11-17T12:59:04.223Z,7.10
2017-11-17T13:01:32.500Z,11.37
2017-11-17T13:04:01.943Z,13.83
2017-11-17T13:06:30.281Z,8.67
2017-11-17T13:08:58.561Z,9.10
2017-11-17T13:11:26.859Z,10.40
2017-11-17T13:13:55.212Z,14.07
2017-11-17T13:16:23.891Z,7.93
2017-11-17T13:18:52.191Z,7.20
2017-11-17T13:21:20.527Z,6.20
2017-11-17T13:23:49.576Z,9.30
2017-11-17T13:26:17.855Z,10.40
2017-11-17T13:28:46.592Z,10.33
2017-11-17T13:31:14.896Z,11.63
2017-11-17T13:33:43.223Z,10.47
2017-11-17T13:36:11.543Z,9.17
2017-11-17T13:38:39.821Z,15.93
2017-11-17T13:41:08.101Z,13.57
2017-11-17T13:43:36.450Z,10.07
2017-11-17T13:46:05.499Z,8.67
2017-11-17T13:48:33.799Z,13.47
2017-11-17T13:51:02.267Z,6.90
2017-11-17T13:53:30.554Z,9.03
2017-11-17T13:55:58.825Z,5.20
2017-11-17T13:58:27.148Z,8.10
2017-11-17T14:00:55.423Z,3.40
2017-11-17T14:03:24.094Z,6.90
2017-11-17T14:05:52.416Z,5.60
2017-11-17T14:08:22.208Z,9.40
2017-11-17T14:10:50.481Z,10.23
2017-11-17T14:13:18.819Z,8.23
2017-11-17T14:15:47.092Z,7.87
2017-11-17T14:18:15.370Z,6.73
2017-11-17T14:20:44.827Z,9.30
2017-11-17T14:23:13.099Z,8.27
2017-11-17T14:25:41.380Z,7.63
2017-11-17T14:28:09.718Z,9.47
2017-11-17T14:30:37.995Z,8.50
2017-11-17T14:33:07.629Z,9.83
2017-11-17T14:35:36.213Z,6.37
2017-11-17T14:38:04.500Z,9.27
2017-11-17T14:40:32.781Z,8.00
2017-11-17T14:43:01.863Z,10.50
2017-11-17T14:45:30.936Z,4.43
2017-11-17T14:47:59.999Z,10.23
2017-11-17T14:50:29.466Z,11.07
2017-11-17T14:52:57.762Z,10.77
2017-11-17T14:55:26.443Z,9.87
2017-11-17T14:57:56.126Z,14.63
2017-11-17T15:00:24.671Z,5.83
2017-11-17T15:02:52.955Z,14.33
2017-11-17T15:05:21.288Z,10.47
2017-11-17T15:07:49.580Z,8.00
2017-11-17T15:10:17.854Z,15.80
2017-11-17T15:12:46.178Z,11.63
2017-11-17T15:15:14.452Z,11.37
2017-11-17T15:17:42.750Z,5.03
2017-11-17T15:20:11.113Z,13.67
2017-11-17T15:22:39.814Z,8.83
2017-11-17T15:25:08.867Z,12.10
2017-11-17T15:27:37.969Z,8.60
2017-11-17T15:30:07.599Z,7.37
2017-11-17T15:32:36.146Z,11.37
2017-11-17T15:35:04.471Z,9.80
2017-11-17T15:37:34.119Z,7.00
2017-11-17T15:40:02.276Z,11.87
2017-11-17T15:42:30.610Z,11.67
2017-11-17T15:44:58.910Z,9.17
2017-11-17T15:47:27.180Z,12.60
2017-11-17T15:49:55.509Z,9.53
2017-11-17T15:52:23.788Z,7.37
2017-11-17T15:54:52.079Z,13.20
2017-11-17T15:57:20.405Z,6.17
2017-11-17T15:59:49.442Z,4.50
2017-11-17T16:02:17.739Z,6.43
2017-11-17T16:04:47.177Z,7.23
2017-11-17T16:07:15.456Z,10.73
2017-11-17T16:09:43.753Z,7.23
2017-11-17T16:12:12.091Z,11.60
2017-11-17T16:14:40.898Z,10.93
2017-11-17T16:17:09.179Z,14.63
2017-11-17T16:19:38.617Z,14.50
2017-11-17T16:22:06.901Z,12.07
2017-11-17T16:24:35.176Z,14.23
2017-11-17T16:27:03.509Z,11.97
2017-11-17T16:29:31.778Z,14.90
2017-11-17T16:32:01.426Z,15.77
2017-11-17T16:34:30.419Z,15.13
2017-11-17T16:36:59.460Z,8.10
2017-11-17T16:39:27.735Z,15.80
2017-11-17T16:41:57.195Z,17.17
2017-11-17T16:44:25.480Z,16.13
2017-11-17T16:46:54.527Z,18.67
2017-11-17T16:49:23.622Z,20.37
2017-11-17T16:51:51.904Z,17.13
2017-11-17T16:54:20.180Z,17.77
2017-11-17T16:56:48.515Z,15.00
2017-11-17T16:59:17.926Z,14.90
2017-11-17T17:01:46.210Z,10.73
2017-11-17T17:04:14.557Z,14.10
2017-11-17T17:06:44.340Z,8.00
2017-11-17T17:09:12.647Z,10.87
2017-11-17T17:11:41.763Z,10.53
2017-11-17T17:14:10.812Z,9.27
2017-11-17T17:16:39.082Z,12.47
2017-11-17T17:19:07.400Z,11.30
2017-11-17T17:21:35.679Z,10.43
2017-11-17T17:24:03.952Z,11.37
2017-11-17T17:26:33.421Z,10.60
2017-11-17T17:29:01.711Z,11.57
2017-11-17T17:31:29.982Z,10.30
2017-11-17T17:33:59.673Z,13.93
2017-11-17T17:36:27.832Z,13.03
2017-11-17T17:38:56.108Z,10.17
2017-11-17T17:41:25.952Z,6.30
2017-11-17T17:43:54.987Z,15.33
2017-11-17T17:46:24.033Z,11.23
2017-11-17T17:48:52.353Z,15.50
2017-11-17T17:51:20.639Z,8.50
2017-11-17T17:53:48.931Z,10.37
2017-11-17T17:56:17.252Z,9.90
2017-11-17T17:58:46.401Z,8.43
2017-11-17T18:01:16.026Z,10.53
2017-11-17T18:03:45.029Z,9.10
2017-11-17T18:06:14.104Z,16.83
2017-11-17T18:08:42.404Z,13.57
2017-11-17T18:11:11.532Z,7.77
2017-11-17T18:13:39.815Z,13.33
2017-11-17T18:16:08.856Z,13.60
2017-11-17T18:18:37.292Z,13.83
2017-11-17T18:21:05.564Z,11.60
2017-11-17T18:23:33.887Z,11.53
2017-11-17T18:26:02.202Z,17.03
2017-11-17T18:28:30.521Z,17.00
2017-11-17T18:30:58.809Z,13.73
2017-11-17T18:33:27.189Z,14.73
2017-11-17T18:35:56.607Z,7.83
2017-11-17T18:38:24.919Z,10.33
2017-11-17T18:40:53.975Z,9.40
2017-11-17T18:43:22.292Z,10.93
2017-11-17T18:45:50.609Z,15.87
2017-11-17T18:48:18.940Z,16.87
2017-11-17T18:50:47.210Z,14.33
2017-11-17T18:53:16.263Z,6.73
2017-11-17T18:55:44.922Z,14.03
2017-11-17T18:58:13.211Z,7.63
2017-11-17T19:00:41.526Z,14.60
2017-11-17T19:03:09.831Z,8.87
2017-11-17T19:05:38.166Z,14.57
2017-11-17T19:08:06.404Z,7.33
2017-11-17T19:10:34.718Z,11.40
2017-11-17T19:13:03.050Z,13.97
2017-11-17T19:15:32.846Z,9.77
2017-11-17T19:18:01.223Z,11.50
2017-11-17T19:20:30.971Z,16.43
2017-11-17T19:22:59.147Z,12.63
2017-11-17T19:25:28.606Z,11.80
2017-11-17T19:27:57.652Z,11.83
2017-11-17T19:30:25.974Z,14.73
2017-11-17T19:32:55.693Z,13.57
2017-11-17T19:35:23.834Z,12.43
2017-11-17T19:37:53.473Z,18.37
2017-11-17T19:40:23.233Z,9.10
2017-11-17T19:42:51.560Z,18.60
2017-11-17T19:45:19.891Z,17.67
2017-11-17T19:47:49.342Z,9.67
2017-11-17T19:50:18.459Z,8.63
2017-11-17T19:52:47.914Z,12.00
2017-11-17T19:55:16.249Z,13.93
2017-11-17T19:57:45.660Z,10.97
2017-11-17T20:00:14.715Z,10.33
2017-11-17T20:02:43.024Z,8.70
2017-11-17T20:05:12.086Z,12.03
2017-11-17T20:07:40.355Z,12.33
2017-11-17T20:10:09.486Z,12.27
2017-11-17T20:12:38.520Z,12.17
2017-11-17T20:15:06.799Z,21.83
2017-11-17T20:17:36.484Z,13.03
2017-11-17T20:20:04.688Z,13.80
2017-11-17T20:22:33.043Z,13.00
2017-11-17T20:25:03.472Z,10.20
2017-11-17T20:27:31.811Z,12.03
2017-11-17T20:30:00.103Z,9.83
2017-11-17T20:32:28.435Z,13.23
2017-11-17T20:34:57.862Z,14.57
2017-11-17T20:37:26.907Z,11.47
2017-11-17T20:39:56.362Z,12.30
2017-11-17T20:42:24.711Z,11.40
2017-11-17T20:44:52.984Z,10.70
2017-11-17T20:47:22.668Z,12.70
2017-11-17T20:49:52.186Z,12.00
2017-11-17T20:52:20.340Z,12.07
2017-11-17T20:54:49.587Z,13.77
2017-11-17T20:57:18.705Z,15.20
2017-11-17T20:59:47.054Z,13.27
2017-11-17T21:02:15.376Z,23.10
2017-11-17T21:04:44.113Z,18.53
2017-11-17T21:07:13.178Z,9.40
2017-11-17T21:09:41.797Z,13.07
2017-11-17T21:12:10.074Z,17.33
2017-11-17T21:14:38.408Z,22.63
2017-11-17T21:17:06.740Z,10.90
2017-11-17T21:19:35.440Z,13.90
2017-11-17T21:22:04.121Z,12.73
2017-11-17T21:24:32.439Z,14.23
2017-11-17T21:27:00.712Z,14.70
2017-11-17T21:29:29.019Z,12.93
2017-11-17T21:31:57.352Z,16.10
2017-11-17T21:34:26.399Z,15.70
2017-11-17T21:36:54.683Z,20.10
2017-11-17T21:39:23.017Z,13.93
2017-11-17T21:41:52.116Z,10.63
2017-11-17T21:44:20.795Z,12.90
2017-11-17T21:46:49.117Z,13.27
2017-11-17T21:49:18.747Z,16.40
2017-11-17T21:51:46.913Z,13.83
2017-11-17T21:54:15.228Z,14.50
2017-11-17T21:56:43.503Z,11.83
2017-11-17T21:59:11.779Z,14.27
2017-11-17T22:01:40.104Z,14.57
2017-11-17T22:04:08.384Z,13.50
2017-11-17T22:06:36.660Z,18.03
2017-11-17T22:09:06.496Z,12.17
2017-11-17T22:11:35.544Z,15.53
2017-11-17T22:14:04.236Z,13.50
2017-11-17T22:16:33.346Z,13.97
2017-11-17T22:19:02.392Z,13.63
2017-11-17T22:21:31.835Z,14.87
2017-11-17T22:24:00.174Z,13.00
2017-11-17T22:26:28.448Z,15.97
2017-11-17T22:28:56.756Z,12.80
2017-11-17T22:31:25.260Z,10.70
2017-11-17T22:33:53.547Z,11.80
2017-11-17T22:36:23.330Z,14.67
2017-11-17T22:38:51.852Z,16.97
2017-11-17T22:41:21.639Z,20.90
2017-11-17T22:43:49.916Z,14.73
2017-11-17T22:46:18.239Z,12.40
2017-11-17T22:48:46.912Z,11.20
2017-11-17T22:51:16.328Z,14.93
2017-11-17T22:53:46.711Z,14.43
2017-11-17T22:56:14.990Z,14.17
2017-11-17T22:58:44.050Z,11.50
2017-11-17T23:01:12.544Z,11.70
2017-11-17T23:03:40.865Z,13.73
2017-11-17T23:06:10.657Z,12.40
2017-11-17T23:08:40.494Z,21.30
2017-11-17T23:11:09.563Z,10.17
2017-11-17T23:13:38.998Z,10.77
2017-11-17T23:16:07.333Z,12.37
2017-11-17T23:18:35.606Z,19.40
2017-11-17T23:21:03.884Z,10.63
2017-11-17T23:23:32.218Z,16.87
2017-11-17T23:26:00.490Z,9.57
2017-11-17T23:28:29.909Z,11.80
2017-11-17T23:30:59.409Z,12.20
2017-11-17T23:33:28.452Z,17.77
2017-11-17T23:35:56.791Z,14.93
2017-11-17T23:38:25.131Z,16.23
2017-11-17T23:40:54.168Z,12.50
2017-11-17T23:43:22.440Z,11.63
2017-11-17T23:45:51.545Z,10.53
2017-11-17T23:48:20.223Z,11.40
2017-11-17T23:50:48.529Z,10.00
2017-11-17T23:53:16.901Z,13.13
2017-11-17T23:55:45.185Z,12.43
2017-11-17T23:58:14.604Z,13.77
